createdAt,value
2022-12-22T00:01:23.130Z,6.33
2022-12-22T00:04:29.735Z,6.39
2022-12-22T00:07:34.291Z,6.25
2022-12-22T00:10:38.914Z,6.32
2022-12-22T00:13:43.377Z,6.27
2022-12-22T00:16:57.109Z,5.88
2022-12-22T00:20:01.721Z,6.08
2022-12-22T00:23:05.923Z,6.11
2022-12-22T00:26:09.734Z,6.19
2022-12-22T00:29:14.371Z,5.96
2022-12-22T00:32:19.815Z,6.05
2022-12-22T00:35:24.559Z,5.82
2022-12-22T00:38:40.233Z,6.04
2022-12-22T00:41:44.026Z,6.17
2022-12-22T00:44:47.952Z,6.10
2022-12-22T00:47:52.480Z,5.93
2022-12-22T00:50:57.216Z,6.19
2022-12-22T00:54:01.703Z,6.15
2022-12-22T00:57:06.484Z,6.19
2022-12-22T01:00:13.664Z,6.21
2022-12-22T01:03:18.149Z,6.07
2022-12-22T01:06:22.760Z,5.98
2022-12-22T01:09:29.475Z,5.95
2022-12-22T01:12:45.645Z,6.30
2022-12-22T01:15:50.345Z,6.17
2022-12-22T01:18:54.807Z,6.18
2022-12-22T01:21:59.411Z,6.14
2022-12-22T01:25:04.136Z,6.17
2022-12-22T01:28:07.881Z,6.11
2022-12-22T01:31:12.249Z,6.47
2022-12-22T01:34:19.406Z,6.43
2022-12-22T01:37:23.855Z,6.32
2022-12-22T01:40:39.009Z,6.15
2022-12-22T01:43:46.718Z,5.93
2022-12-22T01:47:00.264Z,6.27
2022-12-22T01:50:05.167Z,6.46
2022-12-22T01:53:18.023Z,6.46
2022-12-22T01:56:25.135Z,6.44
2022-12-22T01:59:29.436Z,6.45
2022-12-22T02:02:35.713Z,6.23
2022-12-22T02:05:40.249Z,5.84
2022-12-22T02:08:51.948Z,6.08
2022-12-22T02:11:52.211Z,6.16
2022-12-22T02:15:26.183Z,6.39
2022-12-22T02:18:42.348Z,6.32
2022-12-22T02:21:55.265Z,6.40
2022-12-22T02:25:10.570Z,6.16
2022-12-22T02:28:15.438Z,6.18
2022-12-22T02:31:19.825Z,6.53
2022-12-22T02:34:33.142Z,6.29
2022-12-22T02:38:18.252Z,6.33
2022-12-22T02:41:50.217Z,6.47
2022-12-22T02:45:20.785Z,6.40
2022-12-22T02:48:35.815Z,6.38
2022-12-22T02:51:45.896Z,6.01
2022-12-22T02:54:51.698Z,6.20
2022-12-22T02:57:55.807Z,6.36
2022-12-22T03:00:59.556Z,6.63
2022-12-22T03:04:03.773Z,6.34
2022-12-22T03:07:07.823Z,6.37
2022-12-22T03:10:11.979Z,6.45
2022-12-22T03:13:19.528Z,6.42
2022-12-22T03:16:24.195Z,6.51
2022-12-22T03:19:28.682Z,6.41
2022-12-22T03:22:32.971Z,6.35
2022-12-22T03:25:37.039Z,6.38
2022-12-22T03:28:26.612Z,6.25
2022-12-22T03:31:12.473Z,6.15
2022-12-22T03:33:58.243Z,6.44
2022-12-22T03:36:43.567Z,6.40
2022-12-22T03:39:29.084Z,6.34
2022-12-22T03:42:32.802Z,6.19
2022-12-22T03:45:36.723Z,6.45
2022-12-22T03:48:22.148Z,6.70
2022-12-22T03:51:08.107Z,6.71
2022-12-22T03:53:53.467Z,6.82
2022-12-22T03:56:39.798Z,6.71
2022-12-22T03:59:25.099Z,6.84
2022-12-22T04:02:10.740Z,6.74
2022-12-22T04:04:56.638Z,6.46
2022-12-22T04:07:42.270Z,6.80
2022-12-22T04:10:46.171Z,6.86
2022-12-22T04:13:31.753Z,6.61
2022-12-22T04:16:17.056Z,6.50
2022-12-22T04:19:03.079Z,6.23
2022-12-22T04:21:48.347Z,6.09
2022-12-22T04:24:33.824Z,6.48
2022-12-22T04:27:19.301Z,6.74
2022-12-22T04:30:10.440Z,6.24
2022-12-22T04:32:55.910Z,6.05
2022-12-22T04:35:41.340Z,6.22
2022-12-22T04:38:26.669Z,6.25
2022-12-22T04:41:12.625Z,6.42
2022-12-22T04:43:58.107Z,6.35
2022-12-22T04:46:43.949Z,6.26
2022-12-22T04:49:29.407Z,6.16
2022-12-22T04:52:14.805Z,6.18
2022-12-22T04:55:00.417Z,6.49
2022-12-22T04:57:45.833Z,6.41
2022-12-22T05:00:31.334Z,6.41
2022-12-22T05:03:16.849Z,6.67
2022-12-22T05:06:02.625Z,6.88
2022-12-22T05:08:48.089Z,6.35
2022-12-22T05:11:33.582Z,6.58
2022-12-22T05:14:18.962Z,6.58
2022-12-22T05:17:04.544Z,6.74
2022-12-22T05:19:50.423Z,6.63
2022-12-22T05:22:35.963Z,6.62
2022-12-22T05:25:22.068Z,6.47
2022-12-22T05:28:07.527Z,6.50
2022-12-22T05:30:53.662Z,6.59
2022-12-22T05:33:39.447Z,6.65
2022-12-22T05:36:25.083Z,6.55
2022-12-22T05:39:10.690Z,6.42
2022-12-22T05:41:56.422Z,6.92
2022-12-22T05:44:41.829Z,6.67
2022-12-22T05:47:27.092Z,6.71
2022-12-22T05:50:17.698Z,6.98
2022-12-22T05:53:03.732Z,6.91
2022-12-22T05:55:49.301Z,6.86
2022-12-22T05:58:35.361Z,6.87
2022-12-22T06:01:20.808Z,6.85
2022-12-22T06:04:06.254Z,6.84
2022-12-22T06:06:55.048Z,6.82
2022-12-22T06:09:40.768Z,6.98
2022-12-22T06:12:26.302Z,6.73
2022-12-22T06:15:13.352Z,6.67
2022-12-22T06:17:59.576Z,6.70
2022-12-22T06:20:51.813Z,6.49
2022-12-22T06:23:37.664Z,6.88
2022-12-22T06:26:23.714Z,7.17
2022-12-22T06:29:09.574Z,6.60
2022-12-22T06:31:55.621Z,6.67
2022-12-22T06:34:41.477Z,6.65
2022-12-22T06:37:27.267Z,6.59
2022-12-22T06:40:13.994Z,6.45
2022-12-22T06:43:10.086Z,6.37
2022-12-22T06:45:56.135Z,6.42
2022-12-22T06:48:42.039Z,6.62
2022-12-22T06:51:27.380Z,6.91
2022-12-22T06:54:12.868Z,7.07
2022-12-22T06:56:58.321Z,7.04
2022-12-22T06:59:44.234Z,6.78
2022-12-22T07:02:31.575Z,6.29
2022-12-22T07:05:17.288Z,6.29
2022-12-22T07:08:08.020Z,6.64
2022-12-22T07:11:00.505Z,6.96
2022-12-22T07:13:46.761Z,6.98
2022-12-22T07:16:32.243Z,6.77
2022-12-22T07:19:18.032Z,6.70
2022-12-22T07:22:03.651Z,6.84
2022-12-22T07:24:50.325Z,6.93
2022-12-22T07:27:36.172Z,6.76
2022-12-22T07:30:21.794Z,6.28
2022-12-22T07:33:07.535Z,6.41
2022-12-22T07:36:15.473Z,6.51
2022-12-22T07:39:00.887Z,6.76
2022-12-22T07:42:05.108Z,6.53
2022-12-22T07:44:50.750Z,6.31
2022-12-22T07:47:36.186Z,6.15
2022-12-22T07:50:28.209Z,6.63
2022-12-22T07:53:13.689Z,6.74
2022-12-22T07:56:06.061Z,6.19
2022-12-22T07:58:51.524Z,6.56
2022-12-22T08:01:37.618Z,6.92
2022-12-22T08:04:23.620Z,6.85
2022-12-22T08:07:09.385Z,6.63
2022-12-22T08:09:54.742Z,6.81
2022-12-22T08:12:40.425Z,6.51
2022-12-22T08:15:26.308Z,6.68
2022-12-22T08:18:12.243Z,6.52
2022-12-22T08:20:57.708Z,6.64
2022-12-22T08:23:43.273Z,6.41
2022-12-22T08:26:41.761Z,6.73
2022-12-22T08:29:46.265Z,7.26
2022-12-22T08:32:31.706Z,7.56
2022-12-22T08:35:18.416Z,6.90
2022-12-22T08:38:05.675Z,7.27
2022-12-22T08:40:51.334Z,7.25
2022-12-22T08:43:36.799Z,7.61
2022-12-22T08:46:22.318Z,7.50
2022-12-22T08:49:07.910Z,7.58
2022-12-22T08:51:54.569Z,8.15
2022-12-22T08:54:40.529Z,7.90
2022-12-22T08:57:25.980Z,7.51
2022-12-22T09:00:13.660Z,7.03
2022-12-22T09:02:59.060Z,7.20
2022-12-22T09:05:44.920Z,7.79
2022-12-22T09:08:30.842Z,7.85
2022-12-22T09:11:17.056Z,7.85
2022-12-22T09:14:04.334Z,7.84
2022-12-22T09:16:50.790Z,8.23
2022-12-22T09:19:36.417Z,9.06
2022-12-22T09:22:28.111Z,9.28
2022-12-22T09:25:14.726Z,9.87
2022-12-22T09:28:00.386Z,10.01
2022-12-22T09:30:53.369Z,10.06
2022-12-22T09:33:39.178Z,8.89
2022-12-22T09:36:29.627Z,8.84
2022-12-22T09:39:15.991Z,10.56
2022-12-22T09:42:01.609Z,10.49
2022-12-22T09:44:50.657Z,11.35
2022-12-22T09:47:39.599Z,11.14
2022-12-22T09:50:26.940Z,11.90
2022-12-22T09:53:23.618Z,11.98
2022-12-22T09:56:15.223Z,13.14
2022-12-22T09:59:00.958Z,11.31
2022-12-22T10:02:23.216Z,10.66
2022-12-22T10:05:18.009Z,10.83
2022-12-22T10:08:29.035Z,11.51
2022-12-22T10:11:19.029Z,10.66
2022-12-22T10:14:04.321Z,10.79
2022-12-22T10:16:50.044Z,11.57
2022-12-22T10:19:35.834Z,12.23
2022-12-22T10:22:32.457Z,10.93
2022-12-22T10:29:00.768Z,9.72
2022-12-22T10:32:21.355Z,10.26
2022-12-22T10:35:07.757Z,10.39
2022-12-22T10:37:53.784Z,9.99
2022-12-22T10:40:45.956Z,9.04
2022-12-22T10:43:37.961Z,9.40
2022-12-22T10:46:51.815Z,8.37
2022-12-22T10:49:46.101Z,8.25
2022-12-22T10:52:33.130Z,7.43
2022-12-22T10:55:29.845Z,8.01
2022-12-22T10:58:21.308Z,7.95
2022-12-22T11:01:07.019Z,8.02
2022-12-22T11:03:52.906Z,8.24
2022-12-22T11:06:38.405Z,7.77
2022-12-22T11:09:35.341Z,7.52
2022-12-22T11:12:21.374Z,7.50
2022-12-22T11:15:35.143Z,7.76
2022-12-22T11:18:35.558Z,7.70
2022-12-22T11:21:36.067Z,7.34
2022-12-22T11:24:52.084Z,7.66
2022-12-22T11:28:06.019Z,7.32
2022-12-22T11:31:12.714Z,6.97
2022-12-22T11:34:41.141Z,7.11
2022-12-22T11:37:56.532Z,6.99
2022-12-22T11:40:46.911Z,7.09
2022-12-22T11:43:54.003Z,6.84
2022-12-22T11:46:57.912Z,7.30
2022-12-22T11:50:59.174Z,7.27
2022-12-22T11:53:58.433Z,7.27
2022-12-22T11:57:23.236Z,7.20
2022-12-22T12:00:18.610Z,7.01
2022-12-22T12:03:32.051Z,6.64
2022-12-22T12:06:49.250Z,7.15
2022-12-22T12:10:23.454Z,7.06
2022-12-22T12:13:42.697Z,6.64
2022-12-22T12:17:09.340Z,6.72
2022-12-22T12:20:34.516Z,6.89
2022-12-22T12:24:05.917Z,6.43
2022-12-22T12:27:11.787Z,6.48
2022-12-22T12:33:33.580Z,6.46
2022-12-22T12:36:40.542Z,6.81
2022-12-22T12:40:19.574Z,6.83
2022-12-22T12:43:07.556Z,7.14
2022-12-22T12:45:56.611Z,6.72
2022-12-22T12:48:42.432Z,6.24
2022-12-22T12:51:50.183Z,6.50
2022-12-22T12:54:47.495Z,6.45
2022-12-22T12:57:48.650Z,6.58
2022-12-22T13:00:34.727Z,6.85
2022-12-22T13:06:49.982Z,6.64
2022-12-22T13:09:56.334Z,6.75
2022-12-22T13:12:55.165Z,6.58
2022-12-22T13:15:45.198Z,6.83
2022-12-22T13:18:33.885Z,6.83
2022-12-22T13:21:53.513Z,6.69
2022-12-22T13:24:48.835Z,6.66
2022-12-22T13:27:37.311Z,6.43
2022-12-22T13:30:23.876Z,6.77
2022-12-22T13:33:14.060Z,6.49
2022-12-22T13:36:01.146Z,6.81
2022-12-22T13:38:47.247Z,6.70
2022-12-22T13:41:34.428Z,6.61
2022-12-22T13:44:29.684Z,6.50
2022-12-22T13:47:15.747Z,6.97
2022-12-22T13:50:10.064Z,7.14
2022-12-22T13:52:58.111Z,6.71
2022-12-22T13:55:47.967Z,7.25
2022-12-22T13:58:40.682Z,7.13
2022-12-22T14:01:26.230Z,6.99
2022-12-22T14:04:13.954Z,7.44
2022-12-22T14:07:19.086Z,7.49
2022-12-22T14:10:06.115Z,7.74
2022-12-22T14:12:51.613Z,7.72
2022-12-22T14:15:37.807Z,7.56
2022-12-22T14:18:25.933Z,7.73
2022-12-22T14:21:12.619Z,7.78
2022-12-22T14:23:58.143Z,7.51
2022-12-22T14:26:44.102Z,7.65
2022-12-22T14:29:31.121Z,7.84
2022-12-22T14:32:42.598Z,7.77
2022-12-22T14:35:31.717Z,7.74
2022-12-22T14:38:26.293Z,7.44
2022-12-22T14:41:43.215Z,7.71
2022-12-22T14:44:30.079Z,7.64
2022-12-22T14:47:21.277Z,7.43
2022-12-22T14:50:26.427Z,7.55
2022-12-22T14:53:13.173Z,7.86
2022-12-22T14:55:58.769Z,7.73
2022-12-22T14:58:46.734Z,7.87
2022-12-22T15:01:32.380Z,7.71
2022-12-22T15:04:20.484Z,7.80
2022-12-22T15:07:54.412Z,7.89
2022-12-22T15:10:25.850Z,7.66
2022-12-22T15:13:21.383Z,7.34
2022-12-22T15:16:10.048Z,7.79
2022-12-22T15:18:55.443Z,7.61
2022-12-22T15:21:41.064Z,7.88
2022-12-22T15:24:26.575Z,7.89
2022-12-22T15:27:12.034Z,7.90
2022-12-22T15:29:57.350Z,8.06
2022-12-22T15:32:43.926Z,7.85
2022-12-22T15:35:34.932Z,8.02
2022-12-22T15:38:23.345Z,7.58
2022-12-22T15:41:08.840Z,7.97
2022-12-22T15:43:57.769Z,7.99
2022-12-22T15:46:51.461Z,7.81
2022-12-22T15:49:36.967Z,7.50
2022-12-22T15:52:22.795Z,7.66
2022-12-22T15:55:14.801Z,7.71
2022-12-22T15:58:00.549Z,8.02
2022-12-22T16:00:46.823Z,7.90
2022-12-22T16:03:33.064Z,7.99
2022-12-22T16:06:19.745Z,7.94
2022-12-22T16:09:27.355Z,7.97
2022-12-22T16:12:17.610Z,7.74
2022-12-22T16:15:03.758Z,7.75
2022-12-22T16:17:52.100Z,7.59
2022-12-22T16:20:42.492Z,7.67
2022-12-22T16:23:29.390Z,7.85
2022-12-22T16:26:19.768Z,7.65
2022-12-22T16:29:05.082Z,7.85
2022-12-22T16:31:50.555Z,7.48
2022-12-22T16:34:36.509Z,7.55
2022-12-22T16:37:22.129Z,7.64
2022-12-22T16:40:10.066Z,8.01
2022-12-22T16:46:24.533Z,7.95
2022-12-22T16:49:13.769Z,8.04
2022-12-22T16:52:00.132Z,8.15
2022-12-22T16:54:49.286Z,7.97
2022-12-22T16:57:38.103Z,8.10
2022-12-22T17:00:32.199Z,8.04
2022-12-22T17:03:24.840Z,8.06
2022-12-22T17:06:11.154Z,7.98
2022-12-22T17:08:57.067Z,7.97
2022-12-22T17:11:46.246Z,7.63
2022-12-22T17:14:39.106Z,8.03
2022-12-22T17:17:32.057Z,7.75
2022-12-22T17:20:26.386Z,7.57
2022-12-22T17:23:31.057Z,7.95
2022-12-22T17:26:22.583Z,7.63
2022-12-22T17:29:17.905Z,7.81
2022-12-22T17:32:03.663Z,8.16
2022-12-22T17:34:49.741Z,8.07
2022-12-22T17:37:35.420Z,7.91
2022-12-22T17:40:28.727Z,8.02
2022-12-22T17:43:19.912Z,8.15
2022-12-22T17:46:06.668Z,8.11
2022-12-22T17:48:52.298Z,8.14
2022-12-22T17:51:38.296Z,8.11
2022-12-22T17:54:26.463Z,8.14
2022-12-22T17:57:29.871Z,8.10
2022-12-22T18:00:30.163Z,8.25
2022-12-22T18:03:15.969Z,8.30
2022-12-22T18:06:01.825Z,8.12
2022-12-22T18:08:47.744Z,7.84
2022-12-22T18:11:34.245Z,8.25
2022-12-22T18:14:22.683Z,8.22
2022-12-22T18:17:34.908Z,7.98
2022-12-22T18:20:24.032Z,8.14
2022-12-22T18:23:27.201Z,8.20
2022-12-22T18:26:14.440Z,8.30
2022-12-22T18:29:01.910Z,8.36
2022-12-22T18:31:47.679Z,8.32
2022-12-22T18:34:33.629Z,8.20
2022-12-22T18:37:19.373Z,8.27
2022-12-22T18:40:06.354Z,8.27
2022-12-22T18:42:53.290Z,8.40
2022-12-22T18:45:39.731Z,8.14
2022-12-22T18:48:25.282Z,8.35
2022-12-22T18:51:23.488Z,8.31
2022-12-22T18:54:36.454Z,8.39
2022-12-22T18:57:22.075Z,8.24
2022-12-22T19:00:14.091Z,8.15
2022-12-22T19:03:02.411Z,8.44
2022-12-22T19:05:49.123Z,8.38
2022-12-22T19:08:37.845Z,8.48
2022-12-22T19:11:33.620Z,8.16
2022-12-22T19:14:21.609Z,8.45
2022-12-22T19:17:27.290Z,8.45
2022-12-22T19:20:21.217Z,8.45
2022-12-22T19:23:07.076Z,8.25
2022-12-22T19:26:08.360Z,8.31
2022-12-22T19:29:03.164Z,8.41
2022-12-22T19:31:48.932Z,8.53
2022-12-22T19:34:34.872Z,8.55
2022-12-22T19:37:20.715Z,8.37
2022-12-22T19:40:06.982Z,8.31
2022-12-22T19:42:56.117Z,8.39
2022-12-22T19:45:41.814Z,8.36
2022-12-22T19:48:27.892Z,8.36
2022-12-22T19:51:17.576Z,8.21
2022-12-22T19:54:04.036Z,7.93
2022-12-22T19:56:54.431Z,8.09
2022-12-22T19:59:43.998Z,8.34
2022-12-22T20:02:33.459Z,8.37
2022-12-22T20:05:30.325Z,8.42
2022-12-22T20:08:16.562Z,8.40
2022-12-22T20:11:02.325Z,8.39
2022-12-22T20:13:48.541Z,8.35
2022-12-22T20:16:34.181Z,8.39
2022-12-22T20:19:20.091Z,8.21
2022-12-22T20:22:06.165Z,8.10
2022-12-22T20:24:54.544Z,8.12
2022-12-22T20:27:40.261Z,7.93
2022-12-22T20:30:30.071Z,8.12
2022-12-22T20:33:17.969Z,8.22
2022-12-22T20:36:15.547Z,8.28
2022-12-22T20:39:02.139Z,8.31
2022-12-22T20:41:53.014Z,8.31
2022-12-22T20:44:39.409Z,8.25
2022-12-22T20:47:45.853Z,8.10
2022-12-22T20:50:34.554Z,8.10
2022-12-22T20:53:21.064Z,8.04
2022-12-22T20:56:38.397Z,8.16
2022-12-22T20:59:24.805Z,8.06
2022-12-22T21:02:24.520Z,8.25
2022-12-22T21:05:10.629Z,8.19
2022-12-22T21:07:57.456Z,8.30
2022-12-22T21:10:44.937Z,8.41
2022-12-22T21:13:30.672Z,8.27
2022-12-22T21:16:23.888Z,8.07
2022-12-22T21:19:18.011Z,7.91
2022-12-22T21:22:04.044Z,8.05
2022-12-22T21:24:49.493Z,7.96
2022-12-22T21:27:37.206Z,7.97
2022-12-22T21:30:28.474Z,7.93
2022-12-22T21:33:14.402Z,7.93
2022-12-22T21:36:03.044Z,7.79
2022-12-22T21:38:51.929Z,7.89
2022-12-22T21:41:55.903Z,7.83
2022-12-22T21:44:41.472Z,7.92
2022-12-22T21:47:26.821Z,7.86
2022-12-22T21:50:28.747Z,7.94
2022-12-22T21:53:19.842Z,7.64
2022-12-22T21:56:18.264Z,7.90
2022-12-22T21:59:04.319Z,7.96
2022-12-22T22:01:53.047Z,8.02
2022-12-22T22:04:39.114Z,8.07
2022-12-22T22:07:25.084Z,7.93
2022-12-22T22:10:11.255Z,7.89
2022-12-22T22:12:57.514Z,7.94
2022-12-22T22:15:43.515Z,8.05
2022-12-22T22:18:29.304Z,8.13
2022-12-22T22:21:16.803Z,7.85
2022-12-22T22:24:02.436Z,8.14
2022-12-22T22:26:49.277Z,8.16
2022-12-22T22:29:36.143Z,7.94
2022-12-22T22:32:21.591Z,8.04
2022-12-22T22:35:07.384Z,8.22
2022-12-22T22:37:53.176Z,8.13
2022-12-22T22:40:42.097Z,8.20
2022-12-22T22:43:29.416Z,8.27
2022-12-22T22:46:15.017Z,8.15
2022-12-22T22:49:01.450Z,8.13
2022-12-22T22:51:48.748Z,8.09
2022-12-22T22:54:34.669Z,8.08
2022-12-22T22:57:19.954Z,8.23
2022-12-22T23:00:07.857Z,7.95
2022-12-22T23:02:53.495Z,8.12
2022-12-22T23:05:39.148Z,7.95
2022-12-22T23:08:24.592Z,8.08
2022-12-22T23:11:15.303Z,8.07
2022-12-22T23:14:01.396Z,8.13
2022-12-22T23:16:48.727Z,8.19
2022-12-22T23:19:34.471Z,8.16
2022-12-22T23:22:20.093Z,7.85
2022-12-22T23:25:05.939Z,7.95
2022-12-22T23:27:51.540Z,7.94
2022-12-22T23:30:42.756Z,8.04
2022-12-22T23:33:30.329Z,8.03
2022-12-22T23:36:16.016Z,8.07
2022-12-22T23:39:01.515Z,7.85
2022-12-22T23:41:46.928Z,7.91
2022-12-22T23:44:32.497Z,8.10
2022-12-22T23:47:17.879Z,8.05
2022-12-22T23:50:03.612Z,8.21
2022-12-22T23:52:50.619Z,8.10
2022-12-22T23:55:36.300Z,8.14
2022-12-22T23:58:22.700Z,8.23
